Time;durP1;ratioP1;P1;durP2;ratioP2;P2;SDS_P1;SDS_P2;PMS_P1;PMS_P2;Temp;Humidity;BMP_temperature;BMP_pressure;BME280_temperature;BME280_humidity;BME280_pressure;Samples;Min_cycle;Max_cycle;Signal;HPM_P1;HPM_P2
2021/09/27 00:01:06;;;;;;;2.85;2.15;;;15.00;70.60;;;;;;4983753;28;95787;-53
2021/09/27 00:03:39;;;;;;;7.45;2.00;;;15.10;70.40;;;;;;5018729;27;96544;-48
2021/09/27 00:06:12;;;;;;;5.18;2.10;;;15.10;70.50;;;;;;4982496;28;96018;-49
2021/09/27 00:08:43;;;;;;;4.05;2.72;;;15.20;70.90;;;;;;4984387;28;96166;-50
2021/09/27 00:11:22;;;;;;;4.50;2.40;;;15.20;70.80;;;;;;4975688;28;95382;-48
2021/09/27 00:13:55;;;;;;;3.03;2.00;;;15.30;71.00;;;;;;4984923;28;96672;-49
2021/09/27 00:16:27;;;;;;;4.47;2.05;;;15.40;71.00;;;;;;4981991;28;96548;-55
2021/09/27 00:18:59;;;;;;;5.60;2.30;;;15.50;71.20;;;;;;4987537;28;95617;-49
2021/09/27 00:21:33;;;;;;;4.70;2.35;;;15.50;70.80;;;;;;4981089;28;96152;-51
2021/09/27 00:24:06;;;;;;;4.32;1.60;;;15.60;70.30;;;;;;4987029;28;99183;-49
2021/09/27 00:26:37;;;;;;;2.90;1.73;;;15.70;70.40;;;;;;4986614;28;97368;-49
2021/09/27 00:29:08;;;;;;;3.05;1.75;;;15.80;70.40;;;;;;4985070;28;95810;-48
2021/09/27 00:31:38;;;;;;;6.00;1.88;;;15.80;70.20;;;;;;4983917;28;95734;-49
2021/09/27 00:34:08;;;;;;;5.32;1.70;;;15.90;70.10;;;;;;4986859;28;96340;-48
2021/09/27 00:36:38;;;;;;;2.47;1.45;;;16.00;70.00;;;;;;4985781;28;95285;-49
2021/09/27 00:39:08;;;;;;;3.35;1.58;;;16.10;69.80;;;;;;4985551;28;95209;-49
2021/09/27 00:41:39;;;;;;;4.20;2.08;;;16.10;69.80;;;;;;4987584;28;95707;-51
2021/09/27 00:44:12;;;;;;;2.42;1.60;;;16.20;69.40;;;;;;4985705;28;95879;-51
2021/09/27 00:46:42;;;;;;;1.95;1.48;;;16.30;69.10;;;;;;4980383;28;96391;-54
2021/09/27 00:49:13;;;;;;;3.13;1.58;;;16.40;68.70;;;;;;4981747;28;96494;-49
2021/09/27 00:51:46;;;;;;;3.85;1.95;;;16.40;68.50;;;;;;4984450;28;96032;-49
2021/09/27 00:54:29;;;;;;;2.83;1.25;;;16.50;68.20;;;;;;4983300;28;96079;-53
2021/09/27 00:57:12;;;;;;;1.92;1.50;;;16.60;67.90;;;;;;4986566;28;95351;-50
2021/09/27 00:59:49;;;;;;;2.88;1.58;;;16.70;67.80;;;;;;4985723;28;96001;-52
2021/09/27 01:02:21;;;;;;;4.10;1.80;;;16.70;67.80;;;;;;4981801;28;95419;-55
2021/09/27 01:04:53;;;;;;;3.90;1.65;;;16.70;67.90;;;;;;4985050;28;96019;-55
2021/09/27 01:07:51;;;;;;;3.58;1.50;;;16.80;67.90;;;;;;4985562;28;95646;-53
2021/09/27 01:10:33;;;;;;;2.53;1.33;;;16.90;67.80;;;;;;4979736;28;96032;-49
2021/09/27 01:13:09;;;;;;;;;;;17.00;68.20;;;;;;4985484;28;96239;-50
2021/09/27 01:15:46;;;;;;;1.58;1.38;;;17.10;68.20;;;;;;4982111;28;96016;-50
2021/09/27 01:18:36;;;;;;;2.85;1.40;;;17.20;68.20;;;;;;4982640;28;96960;-54
2021/09/27 01:21:19;;;;;;;2.90;1.60;;;17.30;67.90;;;;;;4979468;28;95760;-51
2021/09/27 01:24:27;;;;;;;2.45;1.40;;;17.30;67.00;;;;;;4980600;28;96041;-50
2021/09/27 01:27:29;;;;;;;3.28;1.10;;;17.40;66.90;;;;;;4993576;28;98471;-49
2021/09/27 01:30:25;;;;;;;;;;;17.40;67.00;;;;;;4983694;28;96087;-48
2021/09/27 01:32:59;;;;;;;2.72;1.52;;;17.40;65.70;;;;;;4985739;28;95753;-49
2021/09/27 01:36:06;;;;;;;4.32;1.52;;;17.50;65.40;;;;;;4987049;28;95766;-48
2021/09/27 01:38:47;;;;;;;3.42;1.63;;;17.50;65.20;;;;;;4986370;28;95965;-52
2021/09/27 01:41:29;;;;;;;2.30;1.40;;;17.50;65.10;;;;;;4985364;28;96104;-51
2021/09/27 01:44:20;;;;;;;1.77;1.40;;;17.50;65.00;;;;;;4985626;28;95653;-51
2021/09/27 01:46:59;;;;;;;2.97;1.30;;;17.60;64.90;;;;;;4981337;28;98385;-52
2021/09/27 01:49:42;;;;;;;3.05;1.55;;;17.60;64.50;;;;;;4986353;28;95846;-53
2021/09/27 01:52:54;;;;;;;2.95;1.60;;;17.70;64.50;;;;;;4986039;28;95842;-49
2021/09/27 01:55:43;;;;;;;2.22;1.80;;;17.70;64.30;;;;;;4971389;28;95933;-49
2021/09/27 01:58:26;;;;;;;1.60;1.17;;;17.80;64.30;;;;;;4985113;28;95734;-51
2021/09/27 02:01:07;;;;;;;1.20;1.10;;;17.80;64.10;;;;;;4980176;28;96364;-49
2021/09/27 02:03:50;;;;;;;3.60;1.67;;;17.80;64.30;;;;;;4984734;28;96406;-49
2021/09/27 02:06:41;;;;;;;2.88;1.17;;;17.90;64.50;;;;;;4981099;28;95774;-50
2021/09/27 02:09:30;;;;;;;1.27;1.05;;;17.90;64.50;;;;;;4983371;28;95346;-52
2021/09/27 02:12:08;;;;;;;2.03;1.20;;;17.90;64.60;;;;;;4968563;28;99268;-52
2021/09/27 02:15:01;;;;;;;1.90;1.27;;;18.00;64.90;;;;;;5013155;27;95802;-52
2021/09/27 02:17:45;;;;;;;2.15;1.23;;;18.20;64.90;;;;;;4979269;28;95729;-54
2021/09/27 02:20:40;;;;;;;1.17;0.95;;;18.30;64.90;;;;;;4986325;28;95562;-53
2021/09/27 02:23:24;;;;;;;1.77;1.40;;;18.40;65.00;;;;;;4980139;28;95553;-51
2021/09/27 02:25:55;;;;;;;1.13;0.90;;;18.50;64.60;;;;;;4989765;28;95716;-54
2021/09/27 02:28:27;;;;;;;2.37;1.30;;;18.60;64.90;;;;;;4989745;28;95598;-49
2021/09/27 02:31:13;;;;;;;1.48;1.20;;;18.70;64.90;;;;;;4985010;28;98182;-53
2021/09/27 02:34:11;;;;;;;1.08;0.95;;;18.80;64.90;;;;;;4986524;28;96503;-51
2021/09/27 02:36:57;;;;;;;1.90;0.85;;;18.90;64.70;;;;;;5021788;27;97201;-55
2021/09/27 02:39:37;;;;;;;1.95;0.88;;;19.00;64.50;;;;;;4989482;28;95555;-51
2021/09/27 02:42:21;;;;;;;2.90;1.10;;;19.00;64.50;;;;;;4990005;28;95597;-50
2021/09/27 02:44:52;;;;;;;1.83;1.10;;;19.20;64.60;;;;;;4989324;28;95880;-50
2021/09/27 02:47:29;;;;;;;1.60;0.70;;;19.20;64.60;;;;;;4980413;28;95726;-50
2021/09/27 02:50:01;;;;;;;1.60;1.20;;;19.30;64.60;;;;;;4988048;28;95719;-50
2021/09/27 02:52:32;;;;;;;4.50;1.08;;;19.30;64.50;;;;;;4989311;28;95841;-50
2021/09/27 02:55:12;;;;;;;1.30;0.80;;;19.30;63.60;;;;;;4994607;28;96527;-48
2021/09/27 02:57:56;;;;;;;1.48;1.10;;;19.30;63.30;;;;;;4982761;28;95746;-49
2021/09/27 03:00:56;;;;;;;1.13;0.95;;;19.40;63.90;;;;;;4975747;28;95333;-52
2021/09/27 03:03:35;;;;;;;1.60;0.90;;;19.40;63.90;;;;;;4992326;28;96063;-48
2021/09/27 03:06:21;;;;;;;2.63;1.10;;;19.50;63.80;;;;;;4990410;28;95937;-53
2021/09/27 03:09:29;;;;;;;1.52;0.90;;;19.60;64.00;;;;;;4991885;28;97072;-53
2021/09/27 03:12:15;;;;;;;3.53;0.93;;;19.70;64.00;;;;;;4983082;28;96192;-52
2021/09/27 03:15:20;;;;;;;1.58;1.02;;;19.70;64.10;;;;;;4988920;28;96473;-52
2021/09/27 03:17:59;;;;;;;1.13;0.70;;;19.80;64.10;;;;;;4986887;28;102209;-52
2021/09/27 03:20:41;;;;;;;1.25;0.68;;;19.90;64.20;;;;;;4992635;28;95746;-55
2021/09/27 03:23:45;;;;;;;1.80;1.10;;;19.90;64.10;;;;;;4991391;28;95845;-53
2021/09/27 03:26:27;;;;;;;0.75;0.73;;;20.00;64.20;;;;;;4988816;28;95879;-50
2021/09/27 03:29:14;;;;;;;1.13;1.00;;;20.00;64.20;;;;;;4984588;28;95928;-54
2021/09/27 03:32:18;;;;;;;1.70;1.05;;;20.10;64.20;;;;;;4979613;28;95964;-52
2021/09/27 03:34:59;;;;;;;0.98;0.98;;;20.10;60.60;;;;;;4980093;28;95343;-48
2021/09/27 03:37:58;;;;;;;1.20;0.68;;;20.00;60.10;;;;;;4983558;28;96039;-50
2021/09/27 03:40:46;;;;;;;1.88;1.20;;;19.90;50.50;;;;;;4985974;28;96067;-52
2021/09/27 03:43:20;;;;;;;2.67;1.30;;;19.70;59.30;;;;;;4986063;28;96052;-51
2021/09/27 03:46:17;;;;;;;1.35;1.20;;;19.60;59.00;;;;;;4982174;28;95676;-51
2021/09/27 03:49:09;;;;;;;1.45;1.00;;;19.50;58.90;;;;;;4986021;28;95821;-55
2021/09/27 03:51:43;;;;;;;;;;;19.50;58.50;;;;;;4985829;28;95946;-54
2021/09/27 03:54:29;;;;;;;2.75;1.20;;;19.40;58.40;;;;;;4988212;28;96124;-51
2021/09/27 03:57:09;;;;;;;2.22;1.30;;;19.30;58.70;;;;;;4984666;28;95806;-52
2021/09/27 03:59:47;;;;;;;1.92;1.45;;;19.30;58.60;;;;;;4985261;28;95272;-53
2021/09/27 04:02:35;;;;;;;1.73;1.23;;;19.20;58.30;;;;;;4982950;28;99528;-53
2021/09/27 04:05:12;;;;;;;2.65;1.65;;;19.20;58.40;;;;;;4987522;28;95726;-55
2021/09/27 04:08:15;;;;;;;2.67;1.20;;;19.20;58.70;;;;;;5017619;27;95842;-52
2021/09/27 04:11:10;;;;;;;3.50;1.45;;;19.20;58.50;;;;;;4984242;28;96309;-53
2021/09/27 04:14:10;;;;;;;2.40;1.58;;;19.20;58.60;;;;;;4987560;28;96343;-49
2021/09/27 04:16:40;;;;;;;1.90;1.27;;;19.10;58.50;;;;;;4979223;28;97526;-51
2021/09/27 04:19:28;;;;;;;3.08;1.38;;;19.20;58.80;;;;;;4986935;28;95683;-51
2021/09/27 04:22:05;;;;;;;1.38;1.10;;;19.10;58.90;;;;;;4986703;28;95524;-51
2021/09/27 04:25:04;;;;;;;1.20;1.10;;;19.10;59.00;;;;;;4980573;28;95899;-51
2021/09/27 04:28:02;;;;;;;4.25;1.90;;;19.10;58.70;;;;;;4986240;28;95891;-51
2021/09/27 04:30:52;;;;;;;5.07;2.00;;;19.10;59.50;;;;;;5013398;27;100540;-54
2021/09/27 04:33:28;;;;;;;1.83;1.40;;;19.10;60.10;;;;;;4988111;28;95731;-52
2021/09/27 04:36:17;;;;;;;1.75;1.15;;;19.10;59.40;;;;;;4986697;28;95926;-50
2021/09/27 04:38:53;;;;;;;1.30;1.20;;;19.10;59.20;;;;;;4985640;28;95652;-49
2021/09/27 04:41:29;;;;;;;4.45;1.50;;;19.00;59.60;;;;;;4987317;28;96212;-53
2021/09/27 04:44:21;;;;;;;1.48;1.15;;;19.10;59.30;;;;;;4986902;28;95602;-54
2021/09/27 04:47:21;;;;;;;1.92;0.90;;;19.10;59.00;;;;;;4974949;28;103898;-49
2021/09/27 04:50:03;;;;;;;2.17;0.93;;;19.10;58.80;;;;;;4981813;28;95349;-47
2021/09/27 04:52:42;;;;;;;1.13;0.80;;;19.00;58.60;;;;;;4986383;28;96171;-53
2021/09/27 04:55:21;;;;;;;2.83;1.35;;;19.10;60.00;;;;;;4987658;28;96068;-51
2021/09/27 04:58:11;;;;;;;1.95;1.10;;;19.30;61.00;;;;;;4987378;28;95922;-52
2021/09/27 05:01:16;;;;;;;1.58;0.90;;;19.40;61.40;;;;;;5013163;27;97533;-48
2021/09/27 05:04:02;;;;;;;1.42;0.90;;;19.60;61.90;;;;;;4984936;28;96450;-55
2021/09/27 05:06:48;;;;;;;0.98;0.85;;;19.70;62.10;;;;;;4986716;28;96055;-55
2021/09/27 05:09:30;;;;;;;1.48;1.08;;;19.90;62.40;;;;;;4983020;28;96162;-52
2021/09/27 05:12:23;;;;;;;1.25;1.00;;;19.90;60.30;;;;;;4976792;28;95836;-50
2021/09/27 05:15:05;;;;;;;3.42;1.23;;;19.90;61.80;;;;;;4986763;28;95347;-51
2021/09/27 05:17:59;;;;;;;2.00;1.08;;;20.00;62.00;;;;;;4982902;28;95623;-55
2021/09/27 05:20:40;;;;;;;2.10;0.70;;;20.10;62.20;;;;;;4984939;28;95874;-50
2021/09/27 05:23:31;;;;;;;1.25;0.82;;;20.20;62.30;;;;;;4985510;28;95938;-52
2021/09/27 05:26:18;;;;;;;1.93;0.70;;;20.30;62.40;;;;;;5017094;27;96227;-52
2021/09/27 05:29:15;;;;;;;3.45;0.80;;;20.30;62.40;;;;;;4984031;28;95737;-50
2021/09/27 05:32:13;;;;;;;0.70;0.70;;;20.40;61.60;;;;;;5011727;27;96582;-51
2021/09/27 05:35:08;;;;;;;2.33;0.80;;;20.40;62.40;;;;;;4986211;28;95587;-49
2021/09/27 05:37:56;;;;;;;2.15;0.70;;;20.50;62.50;;;;;;5016647;27;95724;-50
2021/09/27 05:40:32;;;;;;;2.33;0.90;;;20.50;62.70;;;;;;4981126;28;97381;-51
2021/09/27 05:43:12;;;;;;;2.00;1.48;;;20.60;62.70;;;;;;4985575;28;96086;-54
2021/09/27 05:46:17;;;;;;;3.38;0.85;;;20.70;62.90;;;;;;4980006;28;95652;-51
2021/09/27 05:48:54;;;;;;;2.55;2.15;;;20.60;58.00;;;;;;4980120;28;95294;-47
2021/09/27 05:51:34;;;;;;;6.80;3.22;;;20.60;56.70;;;;;;4982738;28;98469;-51
2021/09/27 05:54:14;;;;;;;3.63;2.67;;;20.50;56.80;;;;;;5015217;27;96422;-53
2021/09/27 05:57:04;;;;;;;4.28;2.13;;;20.50;56.50;;;;;;4978622;28;96198;-53
2021/09/27 06:00:01;;;;;;;3.10;2.10;;;20.40;56.30;;;;;;4985009;28;95911;-51
2021/09/27 06:02:52;;;;;;;4.80;2.20;;;20.40;55.90;;;;;;4980257;28;98283;-52
2021/09/27 06:05:28;;;;;;;2.97;2.00;;;20.40;56.10;;;;;;4985227;28;95789;-51
2021/09/27 06:08:11;;;;;;;2.33;2.10;;;20.30;55.90;;;;;;4984960;28;96449;-53
2021/09/27 06:10:58;;;;;;;2.88;2.10;;;20.30;56.10;;;;;;4979145;28;96676;-55
2021/09/27 06:13:36;;;;;;;3.53;2.10;;;20.30;55.80;;;;;;4982367;28;95374;-51
2021/09/27 06:16:20;;;;;;;2.97;1.55;;;20.40;56.10;;;;;;4980454;28;96719;-52
2021/09/27 06:19:20;;;;;;;2.45;1.55;;;20.30;55.90;;;;;;4985202;28;95975;-53
2021/09/27 06:22:12;;;;;;;2.95;1.67;;;20.30;55.90;;;;;;4984598;28;95693;-54
2021/09/27 06:24:43;;;;;;;5.72;1.42;;;20.40;56.80;;;;;;4984469;28;95397;-51
2021/09/27 06:27:41;;;;;;;3.75;1.48;;;20.40;56.10;;;;;;4984981;28;95872;-51
2021/09/27 06:30:33;;;;;;;2.67;1.50;;;20.40;55.70;;;;;;4983182;28;95863;-51
2021/09/27 06:33:27;;;;;;;4.13;1.40;;;20.40;55.30;;;;;;4982019;28;95846;-53
2021/09/27 06:35:59;;;;;;;4.20;1.63;;;20.40;55.40;;;;;;4985012;28;96045;-51
2021/09/27 06:38:33;;;;;;;4.40;1.90;;;20.30;55.70;;;;;;4983454;28;96698;-52
2021/09/27 06:41:06;;;;;;;7.03;1.20;;;20.30;55.90;;;;;;4982179;28;96196;-51
2021/09/27 06:43:40;;;;;;;5.75;1.30;;;20.40;56.30;;;;;;4984541;28;95808;-51
2021/09/27 06:46:12;;;;;;;3.38;1.40;;;20.40;56.80;;;;;;4980583;28;95705;-54
2021/09/27 06:48:43;;;;;;;4.50;1.95;;;20.40;57.00;;;;;;4982364;28;96043;-49
2021/09/27 06:51:14;;;;;;;4.43;1.48;;;20.40;57.20;;;;;;4984177;28;95894;-53
2021/09/27 06:53:46;;;;;;;3.85;1.40;;;20.40;56.00;;;;;;4983169;28;95436;-51
2021/09/27 06:56:17;;;;;;;1.40;1.30;;;20.40;55.50;;;;;;4984761;28;95961;-50
2021/09/27 06:58:48;;;;;;;2.90;1.17;;;20.40;55.90;;;;;;4984582;28;95943;-51
2021/09/27 07:01:21;;;;;;;2.08;1.38;;;20.40;55.80;;;;;;4982224;28;95766;-51
2021/09/27 07:03:52;;;;;;;2.00;1.45;;;20.40;55.60;;;;;;4984040;28;95393;-53
2021/09/27 07:06:23;;;;;;;1.13;1.00;;;20.30;55.50;;;;;;4983959;28;96018;-52
2021/09/27 07:08:56;;;;;;;2.47;1.43;;;20.40;55.60;;;;;;4984406;28;96515;-52
2021/09/27 07:11:27;;;;;;;2.90;1.38;;;20.40;55.70;;;;;;4981681;28;96355;-53
2021/09/27 07:13:58;;;;;;;;;;;20.40;55.60;;;;;;4993798;28;95782;-50
2021/09/27 07:16:29;;;;;;;2.33;1.37;;;20.40;56.00;;;;;;4982990;28;97375;-57
2021/09/27 07:19:07;;;;;;;2.95;1.20;;;20.40;56.20;;;;;;4982272;28;98591;-51
2021/09/27 07:21:40;;;;;;;2.50;1.55;;;20.40;55.60;;;;;;4982728;28;95847;-50
2021/09/27 07:24:13;;;;;;;3.97;1.50;;;20.40;55.50;;;;;;4979200;28;96688;-52
2021/09/27 07:26:43;;;;;;;3.63;1.40;;;20.40;55.50;;;;;;4980826;28;96090;-53
2021/09/27 07:29:14;;;;;;;;;;;20.40;55.50;;;;;;4982322;28;95898;-52
2021/09/27 07:31:44;;;;;;;2.42;1.30;;;20.40;55.40;;;;;;4979764;28;95901;-52
2021/09/27 07:34:17;;;;;;;2.90;1.45;;;20.30;55.00;;;;;;4981729;28;95979;-51
2021/09/27 07:36:54;;;;;;;2.53;1.30;;;20.30;54.80;;;;;;4981207;28;95987;-54
2021/09/27 07:39:26;;;;;;;1.20;1.10;;;20.30;55.10;;;;;;4981537;28;96381;-51
2021/09/27 07:41:56;;;;;;;1.65;0.98;;;20.30;55.20;;;;;;4981785;28;98088;-48
2021/09/27 07:44:27;;;;;;;2.38;1.17;;;20.20;55.00;;;;;;4982846;28;95801;-49
2021/09/27 07:46:58;;;;;;;2.75;1.70;;;20.20;55.00;;;;;;4977828;28;96251;-53
2021/09/27 07:49:27;;;;;;;3.10;1.42;;;20.20;54.90;;;;;;4983762;28;95956;-51
2021/09/27 07:51:59;;;;;;;1.63;1.08;;;20.20;55.00;;;;;;4985323;28;95949;-51
2021/09/27 07:54:31;;;;;;;1.70;1.20;;;20.20;54.70;;;;;;4983578;28;96112;-53
2021/09/27 07:57:03;;;;;;;1.83;1.20;;;20.20;54.60;;;;;;4984244;28;95636;-56
2021/09/27 07:59:35;;;;;;;1.83;1.10;;;20.20;54.80;;;;;;4985918;28;96542;-57
2021/09/27 08:02:08;;;;;;;0.95;0.85;;;20.10;54.60;;;;;;4980616;28;96307;-52
2021/09/27 08:04:39;;;;;;;4.50;1.20;;;20.10;54.50;;;;;;4987394;28;95575;-49
2021/09/27 08:07:09;;;;;;;4.35;1.27;;;20.10;54.90;;;;;;4987601;28;95793;-52
2021/09/27 08:09:40;;;;;;;1.13;0.90;;;20.10;54.60;;;;;;4981015;28;96070;-53
2021/09/27 08:12:12;;;;;;;1.38;1.27;;;20.00;54.50;;;;;;4977904;28;100005;-49
2021/09/27 08:14:42;;;;;;;;;;;20.00;54.60;;;;;;4982706;28;96161;-47
2021/09/27 08:17:13;;;;;;;2.07;1.23;;;20.00;54.90;;;;;;4978026;28;96292;-50
2021/09/27 08:19:46;;;;;;;;;;;20.00;54.80;;;;;;4981555;28;95883;-54
2021/09/27 08:22:18;;;;;;;1.38;1.20;;;19.90;54.80;;;;;;4978820;28;95776;-52
2021/09/27 08:24:49;;;;;;;2.22;1.58;;;19.90;54.80;;;;;;4981337;28;95686;-52
2021/09/27 08:27:20;;;;;;;1.83;1.55;;;19.90;54.80;;;;;;4985524;28;95718;-47
2021/09/27 08:29:51;;;;;;;2.95;1.30;;;19.80;55.00;;;;;;4984664;28;96439;-50
2021/09/27 08:32:23;;;;;;;2.45;1.40;;;19.80;55.00;;;;;;4983846;28;95981;-54
2021/09/27 08:34:53;;;;;;;1.42;1.05;;;19.80;55.10;;;;;;4982534;28;96139;-48
2021/09/27 08:37:24;;;;;;;2.23;1.67;;;19.70;55.20;;;;;;4987580;28;96075;-53
2021/09/27 08:39:59;;;;;;;1.65;1.45;;;19.60;54.90;;;;;;4984957;28;96621;-54
2021/09/27 08:42:37;;;;;;;2.67;2.47;;;19.60;54.80;;;;;;4979767;28;96167;-47
2021/09/27 08:45:18;;;;;;;3.53;3.20;;;19.60;54.70;;;;;;4985913;28;95875;-51
2021/09/27 08:48:19;;;;;;;4.80;2.80;;;19.60;54.90;;;;;;4999145;28;95483;-56
2021/09/27 08:50:50;;;;;;;6.65;3.38;;;19.50;55.00;;;;;;4982475;28;96501;-49
2021/09/27 08:53:34;;;;;;;4.93;3.08;;;19.50;54.90;;;;;;4986066;28;95788;-49
2021/09/27 08:56:08;;;;;;;5.20;3.28;;;19.50;55.20;;;;;;4985056;28;95720;-54
2021/09/27 08:58:44;;;;;;;4.95;3.17;;;19.40;55.20;;;;;;4986982;28;95764;-57
2021/09/27 09:01:28;;;;;;;4.57;3.50;;;19.40;55.30;;;;;;4983653;28;96626;-49
2021/09/27 09:04:15;;;;;;;6.47;4.05;;;19.40;55.40;;;;;;4986034;28;96049;-55
2021/09/27 09:06:58;;;;;;;6.80;4.43;;;19.40;55.50;;;;;;4985675;28;95923;-58
2021/09/27 09:09:47;;;;;;;6.53;4.43;;;19.30;55.60;;;;;;4985380;28;97580;-50
2021/09/27 09:12:38;;;;;;;9.85;4.82;;;19.30;55.70;;;;;;4980666;28;96600;-49
2021/09/27 09:15:26;;;;;;;10.23;5.00;;;19.30;55.90;;;;;;4981943;28;95292;-57
2021/09/27 09:18:04;;;;;;;8.07;4.90;;;19.20;56.10;;;;;;4962085;28;95690;-55
2021/09/27 09:20:49;;;;;;;9.02;5.05;;;19.20;56.30;;;;;;4966779;28;96022;-52
2021/09/27 09:23:37;;;;;;;8.82;5.30;;;19.10;56.20;;;;;;4966692;28;96003;-56
2021/09/27 09:26:13;;;;;;;8.80;5.05;;;19.00;56.40;;;;;;4961356;28;95920;-56
2021/09/27 09:28:47;;;;;;;6.95;4.78;;;19.00;56.60;;;;;;4963948;28;95798;-56
2021/09/27 09:31:25;;;;;;;6.35;4.68;;;19.00;56.90;;;;;;4968923;28;95953;-53
2021/09/27 09:34:00;;;;;;;8.05;5.13;;;19.00;57.50;;;;;;4979295;28;95877;-49
2021/09/27 09:36:33;;;;;;;5.10;3.90;;;19.10;57.50;;;;;;4977701;28;95868;-54
2021/09/27 09:39:26;;;;;;;8.45;4.93;;;19.20;57.80;;;;;;4979185;28;95691;-53
2021/09/27 09:41:58;;;;;;;5.82;4.32;;;19.20;57.90;;;;;;4981939;28;95919;-49
2021/09/27 09:44:34;;;;;;;5.13;4.07;;;19.20;58.10;;;;;;4985543;28;96420;-49
2021/09/27 09:47:19;;;;;;;4.43;3.20;;;19.30;58.30;;;;;;4978928;28;95539;-54
2021/09/27 09:50:14;;;;;;;4.10;3.25;;;19.30;58.90;;;;;;5012595;27;95896;-52
2021/09/27 09:52:49;;;;;;;6.03;3.58;;;19.40;59.20;;;;;;4983127;28;95777;-55
2021/09/27 09:55:43;;;;;;;4.70;3.17;;;19.30;59.40;;;;;;4984677;28;95982;-47
2021/09/27 09:58:33;;;;;;;4.40;3.25;;;19.40;59.50;;;;;;4982776;28;95925;-51
2021/09/27 10:01:10;;;;;;;6.43;3.60;;;19.40;59.80;;;;;;4979050;28;98031;-56
2021/09/27 10:03:45;;;;;;;5.40;3.63;;;19.40;59.80;;;;;;4985115;28;95595;-48
2021/09/27 10:06:23;;;;;;;7.30;3.70;;;19.40;60.50;;;;;;4983208;28;95620;-53
2021/09/27 10:09:00;;;;;;;6.82;3.50;;;19.40;59.90;;;;;;4976647;28;96295;-54
2021/09/27 10:11:43;;;;;;;5.50;3.75;;;19.30;60.00;;;;;;4973757;28;95851;-48
2021/09/27 10:14:38;;;;;;;7.20;3.67;;;19.30;59.70;;;;;;4984130;28;95828;-56
2021/09/27 10:17:28;;;;;;;5.15;3.75;;;19.30;59.60;;;;;;4983898;28;97405;-49
2021/09/27 10:20:16;;;;;;;7.47;3.95;;;19.30;59.60;;;;;;4982072;28;95365;-52
2021/09/27 10:23:02;;;;;;;6.30;3.78;;;19.30;59.70;;;;;;4985590;28;95929;-56
2021/09/27 10:25:46;;;;;;;6.43;3.83;;;19.20;59.60;;;;;;4979275;28;96139;-52
2021/09/27 10:28:21;;;;;;;6.03;4.03;;;19.20;60.50;;;;;;4981385;28;96952;-50
2021/09/27 10:31:00;;;;;;;6.22;4.50;;;19.20;60.70;;;;;;4971946;28;97133;-50
2021/09/27 10:33:36;;;;;;;14.82;5.13;;;19.20;60.30;;;;;;4974671;28;95548;-56
2021/09/27 10:36:35;;;;;;;6.50;4.15;;;19.10;60.50;;;;;;4978118;28;95868;-52
2021/09/27 10:39:09;;;;;;;6.55;4.50;;;19.10;60.50;;;;;;4970921;28;98711;-50
2021/09/27 10:42:01;;;;;;;5.43;4.30;;;19.10;60.70;;;;;;4978758;28;95851;-56
2021/09/27 10:44:47;;;;;;;6.18;4.55;;;19.10;60.50;;;;;;4976772;28;95676;-56
2021/09/27 10:47:33;;;;;;;8.25;4.82;;;19.00;60.60;;;;;;4983246;28;97541;-57
2021/09/27 10:50:23;;;;;;;5.93;4.25;;;19.00;60.90;;;;;;4987823;28;95929;-56
2021/09/27 10:53:06;;;;;;;7.20;4.93;;;18.90;61.00;;;;;;4982477;28;95949;-56
2021/09/27 10:55:48;;;;;;;9.93;5.03;;;18.80;61.10;;;;;;4986586;28;95607;-56
2021/09/27 10:58:38;;;;;;;7.60;5.43;;;18.80;61.50;;;;;;4983488;28;95803;-57
2021/09/27 11:01:12;;;;;;;7.13;5.07;;;18.70;61.60;;;;;;4969687;28;96441;-48
2021/09/27 11:03:53;;;;;;;5.43;4.65;;;18.70;61.50;;;;;;4982269;28;96017;-57
2021/09/27 11:06:44;;;;;;;5.90;4.90;;;18.70;61.40;;;;;;5018632;27;95789;-56
2021/09/27 11:09:26;;;;;;;7.00;4.97;;;18.60;61.40;;;;;;4982897;28;95832;-53
2021/09/27 11:12:08;;;;;;;6.72;5.13;;;18.60;61.40;;;;;;4976263;28;95947;-50
2021/09/27 11:14:40;;;;;;;7.20;4.97;;;18.60;61.40;;;;;;4986685;28;95838;-51
2021/09/27 11:17:37;;;;;;;6.43;4.10;;;18.60;61.40;;;;;;4984278;28;96106;-55
2021/09/27 11:20:41;;;;;;;6.70;5.47;;;18.60;61.40;;;;;;4970129;28;95843;-51
2021/09/27 11:23:33;;;;;;;6.93;4.63;;;18.50;61.50;;;;;;4982204;28;95915;-52
2021/09/27 11:26:13;;;;;;;4.95;4.20;;;18.50;61.50;;;;;;4989035;28;95911;-49
2021/09/27 11:28:51;;;;;;;4.95;4.38;;;18.40;61.40;;;;;;4990551;28;95280;-52
2021/09/27 11:31:29;;;;;;;6.47;4.88;;;18.40;61.50;;;;;;4987259;28;95361;-52
2021/09/27 11:34:32;;;;;;;4.32;3.90;;;18.40;61.50;;;;;;4989799;28;95935;-53
2021/09/27 11:37:24;;;;;;;5.93;4.45;;;18.30;61.50;;;;;;4990706;28;95815;-51
2021/09/27 11:40:12;;;;;;;5.70;4.13;;;18.30;61.60;;;;;;4985478;28;95795;-52
2021/09/27 11:42:56;;;;;;;6.47;4.53;;;18.30;61.60;;;;;;4989553;28;95460;-53
2021/09/27 11:45:35;;;;;;;6.38;4.63;;;18.20;61.60;;;;;;4985911;28;99679;-48
2021/09/27 11:48:30;;;;;;;6.65;4.22;;;18.20;61.70;;;;;;4991185;28;96240;-50
2021/09/27 11:51:23;;;;;;;5.28;3.88;;;18.20;61.80;;;;;;4990312;28;95227;-53
2021/09/27 11:54:19;;;;;;;5.68;4.57;;;18.20;61.90;;;;;;4985889;28;95884;-53
2021/09/27 11:56:57;;;;;;;4.63;3.95;;;18.10;61.80;;;;;;4978869;28;95908;-53
2021/09/27 11:59:54;;;;;;;5.70;4.03;;;18.10;61.90;;;;;;4988420;28;95667;-52
2021/09/27 12:02:29;;;;;;;7.78;6.07;;;18.00;61.90;;;;;;5001678;28;95509;-53
2021/09/27 12:05:10;;;;;;;5.10;4.53;;;18.00;62.00;;;;;;4991117;28;95836;-53
2021/09/27 12:07:52;;;;;;;6.22;4.28;;;18.00;62.10;;;;;;4988756;28;95890;-54
2021/09/27 12:10:41;;;;;;;8.65;4.65;;;17.90;62.10;;;;;;4986967;28;95922;-50
2021/09/27 12:13:19;;;;;;;5.28;4.60;;;17.90;62.20;;;;;;4986517;28;95753;-53
2021/09/27 12:15:59;;;;;;;5.13;4.57;;;17.80;62.20;;;;;;4984837;28;95806;-49
2021/09/27 12:19:01;;;;;;;6.65;4.70;;;17.90;62.90;;;;;;4988699;28;96477;-50
2021/09/27 12:21:40;;;;;;;6.82;4.10;;;17.80;62.30;;;;;;4981609;28;95892;-52
2021/09/27 12:24:21;;;;;;;5.60;4.43;;;17.80;62.30;;;;;;4989392;28;95468;-51
2021/09/27 12:27:06;;;;;;;5.40;4.65;;;17.80;62.40;;;;;;4990419;28;95302;-50
2021/09/27 12:29:53;;;;;;;4.45;4.00;;;17.70;62.40;;;;;;4988135;28;96265;-51
2021/09/27 12:32:26;;;;;;;6.00;5.18;;;17.70;62.40;;;;;;4984376;28;95645;-49
2021/09/27 12:35:00;;;;;;;5.80;4.60;;;17.70;62.50;;;;;;4988933;28;95597;-50
2021/09/27 12:37:41;;;;;;;6.03;4.70;;;17.60;62.50;;;;;;4989419;28;95896;-50
2021/09/27 12:40:17;;;;;;;6.53;4.85;;;17.60;62.60;;;;;;4989314;28;96478;-51
2021/09/27 12:42:54;;;;;;;8.63;4.88;;;17.60;62.60;;;;;;4989500;28;96019;-53
2021/09/27 12:45:37;;;;;;;5.70;4.50;;;17.50;62.60;;;;;;4986301;28;96691;-49
2021/09/27 12:48:19;;;;;;;5.43;4.25;;;17.50;62.60;;;;;;4986426;28;95982;-52
2021/09/27 12:50:56;;;;;;;4.60;4.13;;;17.50;62.70;;;;;;4987409;28;96383;-54
2021/09/27 12:53:45;;;;;;;6.40;4.93;;;17.40;62.70;;;;;;4987383;28;97233;-50
2021/09/27 12:56:17;;;;;;;6.50;4.70;;;17.40;62.70;;;;;;4985662;28;95736;-50
2021/09/27 12:58:54;;;;;;;6.45;4.40;;;17.40;62.80;;;;;;4989660;28;95881;-50
2021/09/27 13:01:30;;;;;;;6.30;5.15;;;17.40;62.80;;;;;;4982988;28;96520;-51
2021/09/27 13:04:19;;;;;;;6.88;4.97;;;17.30;62.80;;;;;;4988431;28;95515;-50
2021/09/27 13:07:17;;;;;;;4.65;4.20;;;17.30;62.90;;;;;;4987624;28;95787;-52
2021/09/27 13:10:04;;;;;;;7.82;4.93;;;17.30;63.00;;;;;;4984426;28;96258;-53
2021/09/27 13:12:39;;;;;;;7.30;4.53;;;17.20;62.90;;;;;;4984119;28;95969;-50
2021/09/27 13:15:35;;;;;;;4.18;3.78;;;17.20;63.00;;;;;;4985772;28;95924;-50
2021/09/27 13:18:12;;;;;;;7.10;5.38;;;17.20;63.00;;;;;;4984717;28;95546;-49
2021/09/27 13:20:54;;;;;;;5.97;4.90;;;17.20;63.10;;;;;;4988044;28;95636;-53
2021/09/27 13:23:25;;;;;;;5.63;4.50;;;17.10;63.10;;;;;;4985903;28;96093;-50
2021/09/27 13:26:03;;;;;;;7.18;5.47;;;17.10;63.20;;;;;;5020243;27;95458;-53
2021/09/27 13:28:38;;;;;;;7.50;5.72;;;17.10;63.20;;;;;;4988448;28;95807;-48
2021/09/27 13:31:11;;;;;;;7.13;6.10;;;17.10;63.60;;;;;;4979038;28;95946;-55
2021/09/27 13:33:44;;;;;;;7.38;6.60;;;17.00;63.60;;;;;;4968483;28;95845;-49
2021/09/27 13:36:37;;;;;;;10.18;6.70;;;17.00;64.40;;;;;;4962481;28;96308;-49
2021/09/27 13:39:15;;;;;;;10.90;7.95;;;17.00;64.00;;;;;;4967634;28;97251;-50
2021/09/27 13:42:08;;;;;;;9.52;7.95;;;17.00;64.10;;;;;;4963393;28;95745;-55
2021/09/27 13:44:41;;;;;;;10.85;8.75;;;16.90;64.10;;;;;;4996789;28;96515;-55
2021/09/27 13:47:14;;;;;;;12.35;8.95;;;16.90;64.10;;;;;;4960733;28;95971;-55
2021/09/27 13:49:44;;;;;;;14.05;9.45;;;16.90;64.50;;;;;;4963944;28;95470;-53
2021/09/27 13:52:18;;;;;;;11.20;9.95;;;16.90;64.50;;;;;;4969094;28;95777;-47
2021/09/27 13:54:51;;;;;;;14.60;10.13;;;16.90;64.50;;;;;;4966265;28;95931;-48
2021/09/27 13:57:22;;;;;;;11.40;9.20;;;16.80;64.60;;;;;;4966620;28;97595;-48
2021/09/27 13:59:53;;;;;;;13.25;10.32;;;16.80;64.60;;;;;;4963411;28;95423;-48
2021/09/27 14:02:24;;;;;;;13.10;10.15;;;16.80;64.60;;;;;;4977139;28;95489;-48